createdAt,value
2022-10-23T00:00:23.409Z,8.6
2022-10-23T00:04:19.467Z,8.6
2022-10-23T00:05:18.967Z,8.6
2022-10-23T00:06:20.981Z,8.6
2022-10-23T00:07:22.997Z,8.5
2022-10-23T00:08:24.966Z,8.5
2022-10-23T00:09:26.958Z,8.5
2022-10-23T00:10:28.984Z,8.5
2022-10-23T00:11:31.961Z,8.5
2022-10-23T00:12:33.969Z,8.5
2022-10-23T00:13:35.962Z,8.5
2022-10-23T00:14:37.964Z,8.5
2022-10-23T00:18:16.248Z,8.5
2022-10-23T00:18:16.734Z,8.5
2022-10-23T00:18:23.351Z,8.5
2022-10-23T00:19:23.382Z,8.4
2022-10-23T00:20:23.387Z,8.4
2022-10-23T00:22:48.461Z,8.5
2022-10-23T00:24:00.272Z,8.4
2022-10-23T00:25:02.182Z,8.4
2022-10-23T00:26:04.239Z,8.4
2022-10-23T00:27:07.191Z,8.4
2022-10-23T00:28:09.200Z,8.4
2022-10-23T00:29:11.189Z,8.4
2022-10-23T00:30:23.354Z,8.4
2022-10-23T00:31:23.375Z,8.4
2022-10-23T00:32:23.374Z,8.4
2022-10-23T00:33:23.362Z,8.4
2022-10-23T00:34:23.390Z,8.4
2022-10-23T00:35:25.296Z,8.4
2022-10-23T00:36:27.219Z,8.4
2022-10-23T00:40:24.671Z,8.4
2022-10-23T00:40:41.555Z,8.4
2022-10-23T00:43:03.627Z,8.4
2022-10-23T00:43:24.314Z,8.4
2022-10-23T00:44:23.366Z,8.4
2022-10-23T00:45:23.370Z,8.4
2022-10-23T00:46:23.387Z,8.4
2022-10-23T00:47:23.372Z,8.4
2022-10-23T00:48:23.376Z,8.4
2022-10-23T00:49:23.368Z,8.3
2022-10-23T00:50:23.381Z,8.4
2022-10-23T00:51:23.428Z,8.3
2022-10-23T00:52:23.373Z,8.3
2022-10-23T00:53:23.379Z,8.4
2022-10-23T00:54:24.848Z,8.3
2022-10-23T00:55:23.368Z,8.3
2022-10-23T00:56:23.390Z,8.3
2022-10-23T00:57:23.719Z,8.3
2022-10-23T00:58:25.548Z,8.3
2022-10-23T00:59:27.556Z,8.3
2022-10-23T01:00:30.567Z,8.3
2022-10-23T01:01:32.716Z,8.3
2022-10-23T01:02:34.691Z,8.3
2022-10-23T01:03:36.559Z,8.3
2022-10-23T01:04:38.544Z,8.3
2022-10-23T01:05:40.609Z,8.3
2022-10-23T01:06:42.596Z,8.3
2022-10-23T01:07:44.906Z,8.3
2022-10-23T01:08:46.556Z,8.3
2022-10-23T01:09:48.549Z,8.3
2022-10-23T01:10:50.607Z,8.3
2022-10-23T01:11:52.559Z,8.3
2022-10-23T01:12:54.559Z,8.3
2022-10-23T01:13:56.581Z,8.3
2022-10-23T01:14:58.563Z,8.3
2022-10-23T01:16:00.582Z,8.3
2022-10-23T01:17:02.557Z,8.3
2022-10-23T01:18:04.565Z,8.3
2022-10-23T01:19:06.585Z,8.3
2022-10-23T01:20:09.586Z,8.3
2022-10-23T01:21:11.563Z,8.3
2022-10-23T01:22:13.650Z,8.3
2022-10-23T01:23:15.563Z,8.3
2022-10-23T01:24:17.569Z,8.2
2022-10-23T01:25:19.590Z,8.2
2022-10-23T01:26:21.592Z,8.2
2022-10-23T01:27:23.706Z,8.2
2022-10-23T01:28:25.583Z,8.2
2022-10-23T01:29:27.568Z,8.2
2022-10-23T01:30:29.665Z,8.3
2022-10-23T01:31:31.609Z,8.2
2022-10-23T01:32:33.582Z,8.2
2022-10-23T01:33:35.582Z,8.3
2022-10-23T01:34:37.593Z,8.3
2022-10-23T01:35:40.562Z,8.2
2022-10-23T01:36:42.586Z,8.3
2022-10-23T01:37:44.584Z,8.3
2022-10-23T01:38:46.582Z,8.2
2022-10-23T01:39:48.574Z,8.2
2022-10-23T01:40:50.575Z,8.2
2022-10-23T01:41:52.607Z,8.2
2022-10-23T01:42:54.573Z,8.2
2022-10-23T01:43:56.578Z,8.2
2022-10-23T01:44:58.582Z,8.2
2022-10-23T01:46:00.610Z,8.2
2022-10-23T01:47:02.603Z,8.2
2022-10-23T01:48:04.589Z,8.2
2022-10-23T01:49:06.601Z,8.2
2022-10-23T01:50:10.619Z,8.1
2022-10-23T01:51:12.582Z,8.1
2022-10-23T01:52:14.593Z,8.1
2022-10-23T01:53:16.592Z,8.1
2022-10-23T01:54:18.597Z,8.1
2022-10-23T01:55:20.611Z,8.1
2022-10-23T01:56:22.683Z,8.1
2022-10-23T01:57:24.593Z,8.1
2022-10-23T01:58:26.600Z,8.1
2022-10-23T01:59:28.594Z,8.1
2022-10-23T02:00:30.597Z,8.1
2022-10-23T02:01:32.755Z,8.1
2022-10-23T02:02:34.755Z,8.1
2022-10-23T02:03:36.605Z,8.1
2022-10-23T02:04:38.593Z,8.1
2022-10-23T02:05:40.597Z,8.1
2022-10-23T02:06:43.626Z,8.1
2022-10-23T02:07:45.702Z,8.1
2022-10-23T02:08:47.645Z,8.1
2022-10-23T02:09:49.611Z,8.1
2022-10-23T02:10:51.596Z,8.1
2022-10-23T02:11:53.648Z,8
2022-10-23T02:12:55.608Z,8
2022-10-23T02:13:57.600Z,8
2022-10-23T02:14:59.602Z,8
2022-10-23T02:16:01.607Z,8
2022-10-23T02:17:03.645Z,8
2022-10-23T02:18:07.613Z,8
2022-10-23T02:19:10.617Z,8
2022-10-23T02:20:12.606Z,8
2022-10-23T02:21:14.604Z,8
2022-10-23T02:22:16.815Z,8
2022-10-23T02:23:18.609Z,8
2022-10-23T02:24:20.613Z,8
2022-10-23T02:25:22.613Z,8
2022-10-23T02:26:24.615Z,8
2022-10-23T02:27:26.652Z,8
2022-10-23T02:28:30.615Z,8
2022-10-23T02:29:33.612Z,8
2022-10-23T02:30:35.610Z,8
2022-10-23T02:31:37.620Z,8
2022-10-23T02:32:39.816Z,8
2022-10-23T02:33:41.611Z,8
2022-10-23T02:34:43.618Z,8
2022-10-23T02:35:45.622Z,8
2022-10-23T02:36:47.622Z,8
2022-10-23T02:37:50.648Z,8
2022-10-23T02:38:52.624Z,8
2022-10-23T02:39:54.629Z,8
2022-10-23T02:40:56.624Z,8.1
2022-10-23T02:41:58.633Z,8.1
2022-10-23T02:43:00.666Z,8.1
2022-10-23T02:44:02.624Z,8
2022-10-23T02:45:04.630Z,8
2022-10-23T02:46:06.642Z,8
2022-10-23T02:47:09.630Z,8
2022-10-23T02:48:11.706Z,8
2022-10-23T02:49:13.635Z,8
2022-10-23T02:50:15.627Z,8.1
2022-10-23T02:51:17.626Z,8.1
2022-10-23T02:52:19.623Z,8.2
2022-10-23T02:53:21.819Z,8.2
2022-10-23T02:54:23.763Z,8.1
2022-10-23T02:55:25.634Z,8.1
2022-10-23T02:56:27.638Z,8.1
2022-10-23T02:57:29.645Z,8.1
2022-10-23T02:58:31.640Z,8
2022-10-23T02:59:33.637Z,8
2022-10-23T03:00:35.633Z,8
2022-10-23T03:01:37.748Z,8
2022-10-23T03:03:41.637Z,7.9
2022-10-23T03:04:43.641Z,7.9
2022-10-23T03:05:45.644Z,7.9
2022-10-23T03:06:47.649Z,7.9
2022-10-23T03:07:50.640Z,7.9
2022-10-23T03:08:52.641Z,7.9
2022-10-23T03:09:54.687Z,7.9
2022-10-23T03:10:57.643Z,7.9
2022-10-23T03:11:59.642Z,7.9
2022-10-23T03:13:01.646Z,7.8
2022-10-23T03:14:03.650Z,7.8
2022-10-23T03:15:06.673Z,7.8
2022-10-23T03:16:09.673Z,7.8
2022-10-23T03:17:11.654Z,7.8
2022-10-23T03:18:13.652Z,7.8
2022-10-23T03:19:15.656Z,7.8
2022-10-23T03:20:17.650Z,7.8
2022-10-23T03:21:20.686Z,7.8
2022-10-23T03:22:22.655Z,7.8
2022-10-23T03:23:24.651Z,7.8
2022-10-23T03:24:26.651Z,7.8
2022-10-23T03:25:28.676Z,7.8
2022-10-23T03:26:30.685Z,7.8
2022-10-23T03:27:32.657Z,7.8
2022-10-23T03:28:34.654Z,7.8
2022-10-23T03:29:36.653Z,7.8
2022-10-23T03:30:39.681Z,7.8
2022-10-23T03:31:41.652Z,7.9
2022-10-23T03:32:44.035Z,7.9
2022-10-23T03:33:45.655Z,7.9
2022-10-23T03:34:47.658Z,7.9
2022-10-23T03:35:49.726Z,7.9
2022-10-23T03:36:51.665Z,7.9
2022-10-23T03:37:53.657Z,7.9
2022-10-23T03:38:55.663Z,7.9
2022-10-23T03:39:58.667Z,7.9
2022-10-23T03:41:00.745Z,7.9
2022-10-23T03:42:02.665Z,7.9
2022-10-23T03:43:04.676Z,7.9
2022-10-23T03:44:06.690Z,7.9
2022-10-23T03:45:09.668Z,7.9
2022-10-23T03:46:11.712Z,7.9
2022-10-23T03:47:13.666Z,7.9
2022-10-23T03:48:15.669Z,7.9
2022-10-23T03:49:17.677Z,7.9
2022-10-23T03:50:19.698Z,7.9
2022-10-23T03:51:21.712Z,7.9
2022-10-23T03:53:25.688Z,7.9
2022-10-23T03:54:27.672Z,7.9
2022-10-23T03:55:29.673Z,7.9
2022-10-23T03:56:31.735Z,7.9
2022-10-23T03:57:33.673Z,7.9
2022-10-23T03:58:35.679Z,7.9
2022-10-23T03:59:38.681Z,7.9
2022-10-23T04:00:40.730Z,7.9
2022-10-23T04:01:42.820Z,7.9
2022-10-23T04:02:44.947Z,7.9
2022-10-23T04:03:46.687Z,7.9
2022-10-23T04:04:48.693Z,7.9
2022-10-23T04:05:52.367Z,7.9
2022-10-23T04:06:53.690Z,7.9
2022-10-23T04:07:55.693Z,7.9
2022-10-23T04:08:58.708Z,7.9
2022-10-23T04:10:00.683Z,7.9
2022-10-23T04:11:02.699Z,7.9
2022-10-23T04:12:07.734Z,7.9
2022-10-23T04:13:09.692Z,7.9
2022-10-23T04:14:11.687Z,7.9
2022-10-23T04:15:13.692Z,7.9
2022-10-23T04:16:15.883Z,7.9
2022-10-23T04:17:17.807Z,7.9
2022-10-23T04:18:19.694Z,7.9
2022-10-23T04:19:21.690Z,7.9
2022-10-23T04:20:23.828Z,7.9
2022-10-23T04:21:25.689Z,7.9
2022-10-23T04:22:28.581Z,7.9
2022-10-23T04:23:29.695Z,7.9
2022-10-23T04:24:31.699Z,7.9
2022-10-23T04:25:34.748Z,7.9
2022-10-23T04:26:36.698Z,7.9
2022-10-23T04:27:38.729Z,7.9
2022-10-23T04:28:41.699Z,7.9
2022-10-23T04:29:43.702Z,7.9
2022-10-23T04:30:45.707Z,7.9
2022-10-23T04:31:47.778Z,7.9
2022-10-23T04:32:49.730Z,8
2022-10-23T04:33:51.804Z,8
2022-10-23T04:34:54.701Z,8
2022-10-23T04:35:56.704Z,8
2022-10-23T04:36:58.699Z,8
2022-10-23T04:38:00.748Z,8
2022-10-23T04:39:03.718Z,8
2022-10-23T04:40:06.725Z,8
2022-10-23T04:41:09.707Z,8
2022-10-23T04:42:11.720Z,8
2022-10-23T04:43:13.750Z,8
2022-10-23T04:44:15.718Z,8
2022-10-23T04:45:17.715Z,8
2022-10-23T04:46:20.712Z,8
2022-10-23T04:47:22.822Z,8
2022-10-23T04:48:27.014Z,8
2022-10-23T04:49:26.722Z,8
2022-10-23T04:50:28.715Z,8
2022-10-23T04:51:30.718Z,8
2022-10-23T04:52:32.722Z,8
2022-10-23T04:53:35.717Z,8
2022-10-23T04:54:37.728Z,8
2022-10-23T04:55:39.731Z,8
2022-10-23T04:56:41.719Z,8
2022-10-23T04:57:43.720Z,8
2022-10-23T04:58:45.727Z,8
2022-10-23T04:59:48.720Z,8
2022-10-23T05:00:50.778Z,8
2022-10-23T05:01:52.798Z,8
2022-10-23T05:02:54.765Z,8
2022-10-23T05:03:56.724Z,8
2022-10-23T05:04:58.726Z,8
2022-10-23T05:06:00.730Z,8
2022-10-23T05:07:02.735Z,8.1
2022-10-23T05:08:04.729Z,8
2022-10-23T05:09:06.744Z,8
2022-10-23T05:10:09.726Z,8
2022-10-23T05:11:11.727Z,8
2022-10-23T05:12:13.731Z,8
2022-10-23T05:13:15.735Z,8
2022-10-23T05:14:21.984Z,8
2022-10-23T05:15:19.734Z,8
2022-10-23T05:16:21.740Z,8.1
2022-10-23T05:17:23.882Z,8.1
2022-10-23T05:18:25.744Z,8.1
2022-10-23T05:19:27.743Z,8.1
2022-10-23T05:20:29.746Z,8.1
2022-10-23T05:21:32.738Z,8.1
2022-10-23T05:22:34.737Z,8.1
2022-10-23T05:23:36.767Z,8.1
2022-10-23T05:24:38.740Z,8.1
2022-10-23T05:25:40.741Z,8.1
2022-10-23T05:26:42.745Z,8.1
2022-10-23T05:27:45.161Z,8.1
2022-10-23T05:28:46.776Z,8.1
2022-10-23T05:29:48.745Z,8.1
2022-10-23T05:30:50.746Z,8.1
2022-10-23T05:31:52.753Z,8.1
2022-10-23T05:32:54.748Z,8.1
2022-10-23T05:33:56.791Z,8.1
2022-10-23T05:34:58.746Z,8.1
2022-10-23T05:36:00.750Z,8.1
2022-10-23T05:37:02.747Z,8.1
2022-10-23T05:38:04.752Z,8.1
2022-10-23T05:39:06.806Z,8.1
2022-10-23T05:40:09.747Z,8.1
2022-10-23T05:41:11.746Z,8.2
2022-10-23T05:42:13.755Z,8.1
2022-10-23T05:43:15.770Z,8.1
2022-10-23T05:44:17.783Z,8.1
2022-10-23T05:45:19.749Z,8.2
2022-10-23T05:46:21.757Z,8.1
2022-10-23T05:47:23.880Z,8.2
2022-10-23T05:48:33.948Z,8.1
2022-10-23T05:49:28.255Z,8.1
2022-10-23T05:50:29.765Z,8.2
2022-10-23T05:51:31.756Z,8.2
2022-10-23T05:52:33.761Z,8.2
2022-10-23T05:53:38.743Z,8.2
2022-10-23T05:54:37.953Z,8.2
2022-10-23T05:55:39.764Z,8.2
2022-10-23T05:56:41.776Z,8.2
2022-10-23T05:57:44.067Z,8.2
2022-10-23T05:58:45.763Z,8.2
2022-10-23T05:59:47.799Z,8.2
2022-10-23T06:00:49.792Z,8.2
2022-10-23T06:01:51.873Z,8.2
2022-10-23T06:02:53.767Z,8.2
2022-10-23T06:04:58.803Z,8.2
2022-10-23T06:06:00.804Z,8.2
2022-10-23T06:07:02.771Z,8.2
2022-10-23T06:08:04.774Z,8.2
2022-10-23T06:09:06.797Z,8.2
2022-10-23T06:10:09.784Z,8.2
2022-10-23T06:11:11.798Z,8.2
2022-10-23T06:12:13.771Z,8.3
2022-10-23T06:13:15.770Z,8.2
2022-10-23T06:14:17.779Z,8.3
2022-10-23T06:15:19.775Z,8.3
2022-10-23T06:16:21.829Z,8.3
2022-10-23T06:17:23.911Z,8.3
2022-10-23T06:18:25.777Z,8.3
2022-10-23T06:19:27.779Z,8.3
2022-10-23T06:20:30.869Z,8.3
2022-10-23T06:21:32.806Z,8.3
2022-10-23T06:22:34.786Z,8.3
2022-10-23T06:23:36.791Z,8.3
2022-10-23T06:24:38.778Z,8.3
2022-10-23T06:25:40.786Z,8.4
2022-10-23T06:26:42.817Z,8.4
2022-10-23T06:27:44.793Z,8.4
2022-10-23T06:28:46.783Z,8.4
2022-10-23T06:29:48.792Z,8.4
2022-10-23T06:30:50.790Z,8.5
2022-10-23T06:31:52.814Z,8.6
2022-10-23T06:32:54.785Z,8.6
2022-10-23T06:33:56.794Z,8.6
2022-10-23T06:34:58.823Z,8.5
2022-10-23T06:36:00.792Z,8.5
2022-10-23T06:37:02.814Z,8.6
2022-10-23T06:38:04.790Z,8.6
2022-10-23T06:39:06.851Z,8.6
2022-10-23T06:40:09.841Z,8.6
2022-10-23T06:41:11.791Z,8.6
2022-10-23T06:42:13.796Z,8.6
2022-10-23T06:43:15.817Z,8.7
2022-10-23T06:44:17.800Z,8.7
2022-10-23T06:45:19.833Z,8.7
2022-10-23T06:48:12.359Z,8.7
2022-10-23T06:48:13.089Z,8.7
2022-10-23T06:48:28.802Z,8.7
2022-10-23T06:49:30.851Z,8.6
2022-10-23T06:54:42.608Z,8.7
2022-10-23T06:55:44.562Z,8.7
2022-10-23T06:56:47.535Z,8.8
2022-10-23T06:57:49.550Z,8.8
2022-10-23T06:58:51.530Z,8.8
2022-10-23T06:59:53.568Z,8.9
2022-10-23T07:00:55.620Z,8.9
2022-10-23T07:01:58.356Z,8.9
2022-10-23T07:03:00.351Z,8.9
2022-10-23T07:04:05.345Z,8.9
2022-10-23T07:05:09.896Z,8.9
2022-10-23T07:06:09.353Z,8.9
2022-10-23T07:07:11.347Z,8.9
2022-10-23T07:08:13.368Z,8.9
2022-10-23T07:09:15.347Z,8.9
2022-10-23T07:10:17.363Z,8.9
2022-10-23T07:11:19.378Z,8.9
2022-10-23T07:14:49.843Z,8.9
2022-10-23T07:17:17.415Z,9
2022-10-23T07:17:17.934Z,9
2022-10-23T07:28:56.522Z,9.2
2022-10-23T07:29:44.362Z,9.3
2022-10-23T07:31:27.184Z,9.4
2022-10-23T07:32:23.663Z,9.5
2022-10-23T07:33:54.366Z,9.5
2022-10-23T07:37:09.563Z,9.6
2022-10-23T07:38:20.335Z,9.6
2022-10-23T07:39:22.302Z,9.6
2022-10-23T07:40:24.297Z,9.6
2022-10-23T07:41:26.296Z,9.6
2022-10-23T07:42:29.348Z,9.7
2022-10-23T07:43:39.338Z,9.7
2022-10-23T07:44:34.300Z,9.7
2022-10-23T07:45:36.346Z,9.8
2022-10-23T07:46:38.295Z,9.8
2022-10-23T07:47:40.461Z,9.8
2022-10-23T07:49:23.665Z,9.9
2022-10-23T07:50:23.712Z,9.9
2022-10-23T07:51:23.686Z,9.9
2022-10-23T07:52:23.679Z,9.9
2022-10-23T07:53:23.680Z,9.9
2022-10-23T07:54:23.685Z,9.9
2022-10-23T07:55:23.709Z,9.9
2022-10-23T07:56:23.707Z,9.9
2022-10-23T07:57:23.698Z,9.9
2022-10-23T07:58:23.686Z,10
2022-10-23T07:59:23.687Z,10
2022-10-23T08:01:23.838Z,10
2022-10-23T08:02:23.736Z,10
2022-10-23T08:03:23.697Z,10
2022-10-23T08:04:23.689Z,10.1
2022-10-23T08:05:23.746Z,10.1
2022-10-23T08:06:23.690Z,10.1
2022-10-23T08:07:23.710Z,10.1
2022-10-23T08:08:23.686Z,10.1
2022-10-23T08:09:23.712Z,10.1
2022-10-23T08:11:27.339Z,10.2
2022-10-23T08:12:29.335Z,10.2
2022-10-23T08:13:32.363Z,10.3
2022-10-23T08:14:34.335Z,10.3
2022-10-23T08:15:36.315Z,10.3
2022-10-23T08:17:26.266Z,10.5
2022-10-23T08:18:23.695Z,10.6
2022-10-23T08:19:23.704Z,10.7
2022-10-23T08:20:23.693Z,10.7
2022-10-23T08:21:23.727Z,10.7
2022-10-23T08:22:23.719Z,10.7
2022-10-23T08:23:23.734Z,10.8
2022-10-23T08:24:23.706Z,10.8
2022-10-23T08:25:25.135Z,10.8
2022-10-23T08:26:23.697Z,10.8
2022-10-23T08:27:23.706Z,10.9
2022-10-23T08:30:16.630Z,11
2022-10-23T08:31:18.652Z,11.1
2022-10-23T08:32:20.632Z,11.1
2022-10-23T08:35:26.950Z,11.3
2022-10-23T08:58:28.265Z,11.8
2022-10-23T08:59:23.730Z,12.3
2022-10-23T09:00:23.745Z,12.4
2022-10-23T09:01:24.082Z,12.4
2022-10-23T09:02:23.829Z,12.5
2022-10-23T09:04:00.865Z,12.5
2022-10-23T09:05:02.848Z,12.5
2022-10-23T09:06:04.897Z,12.6
2022-10-23T09:07:06.937Z,12.6
2022-10-23T09:08:08.892Z,12.7
2022-10-23T09:09:10.872Z,12.7
2022-10-23T09:10:13.864Z,12.8
2022-10-23T09:11:15.951Z,12.9
2022-10-23T09:12:17.895Z,12.9
2022-10-23T09:13:19.863Z,13
2022-10-23T09:14:21.888Z,13
2022-10-23T09:16:26.915Z,13.3
2022-10-23T09:18:33.980Z,13.4
2022-10-23T09:19:36.480Z,13.5
2022-10-23T09:20:38.469Z,13.5
2022-10-23T09:21:40.539Z,13.6
2022-10-23T09:23:23.750Z,13.8
2022-10-23T09:26:23.876Z,13.9
2022-10-23T09:27:23.855Z,13.9
2022-10-23T09:28:23.750Z,13.9
2022-10-23T09:29:23.743Z,13.9
2022-10-23T09:33:23.797Z,13.9
2022-10-23T09:34:23.752Z,13.9
2022-10-23T09:35:23.819Z,13.8
2022-10-23T09:36:23.819Z,13.8
2022-10-23T09:37:23.797Z,13.8
2022-10-23T09:38:23.789Z,13.8
2022-10-23T09:39:23.756Z,13.8
2022-10-23T09:40:23.762Z,13.8
2022-10-23T09:41:23.754Z,13.8
2022-10-23T09:42:23.757Z,13.7
2022-10-23T09:43:24.511Z,13.8
2022-10-23T09:44:26.507Z,13.8
2022-10-23T09:45:28.518Z,13.8
2022-10-23T09:46:30.563Z,13.8
2022-10-23T09:47:33.547Z,13.9
2022-10-23T09:48:35.519Z,13.9
2022-10-23T09:49:37.516Z,13.9
2022-10-23T09:50:39.506Z,13.9
2022-10-23T09:51:41.523Z,14
2022-10-23T09:52:43.546Z,14
2022-10-23T09:53:45.515Z,14
2022-10-23T09:54:47.515Z,14
2022-10-23T09:55:49.515Z,14
2022-10-23T09:56:53.527Z,14
2022-10-23T09:57:55.547Z,14.1
2022-10-23T09:58:57.517Z,14.2
2022-10-23T09:59:59.517Z,14.3
2022-10-23T10:01:01.643Z,14.3
2022-10-23T10:02:03.607Z,14.4
2022-10-23T10:03:05.543Z,14.4
2022-10-23T10:04:07.515Z,14.4
2022-10-23T10:05:23.778Z,14.4
2022-10-23T10:06:23.771Z,14.4
2022-10-23T10:07:23.807Z,14.5
2022-10-23T10:08:23.813Z,14.5
2022-10-23T10:09:23.814Z,14.5
2022-10-23T10:10:23.818Z,14.5
2022-10-23T10:11:23.797Z,14.6
2022-10-23T10:12:24.531Z,14.6
2022-10-23T10:13:26.525Z,14.6
2022-10-23T10:14:28.559Z,14.6
2022-10-23T10:15:30.563Z,14.7
2022-10-23T10:16:33.650Z,14.7
2022-10-23T10:17:35.547Z,14.7
2022-10-23T10:18:37.538Z,14.7
2022-10-23T10:19:39.566Z,14.8
2022-10-23T10:20:41.537Z,14.8
2022-10-23T10:21:43.538Z,14.8
2022-10-23T10:22:46.542Z,14.8
2022-10-23T10:23:48.560Z,14.9
2022-10-23T10:24:50.525Z,15
2022-10-23T10:25:52.533Z,15
2022-10-23T10:26:54.538Z,15.1
2022-10-23T10:27:56.541Z,15.2
2022-10-23T10:28:58.554Z,15.2
2022-10-23T10:30:00.531Z,15.3
2022-10-23T10:31:02.530Z,15.3
2022-10-23T10:32:06.539Z,15.3
2022-10-23T10:33:08.532Z,15.4
2022-10-23T10:34:10.828Z,15.4
2022-10-23T10:35:13.562Z,15.4
2022-10-23T10:36:15.614Z,15.4
2022-10-23T10:37:17.538Z,15.5
2022-10-23T10:38:19.545Z,15.5
2022-10-23T10:39:21.536Z,15.6
2022-10-23T10:40:23.565Z,15.6
2022-10-23T10:41:25.569Z,15.7
2022-10-23T10:42:27.553Z,15.7
2022-10-23T10:43:31.543Z,15.8
2022-10-23T10:44:33.569Z,15.8
2022-10-23T10:45:35.544Z,15.9
2022-10-23T10:46:37.576Z,15.9
2022-10-23T10:47:39.602Z,16
2022-10-23T10:48:41.555Z,16
2022-10-23T10:49:43.603Z,16.1
2022-10-23T10:50:45.559Z,16.1
2022-10-23T10:51:47.645Z,16.1
2022-10-23T10:52:49.557Z,16.1
2022-10-23T10:53:51.558Z,16.1
2022-10-23T10:54:53.556Z,16.1
2022-10-23T10:55:55.582Z,16.2
2022-10-23T10:56:57.573Z,16.2
2022-10-23T10:58:00.148Z,16.2
2022-10-23T10:59:01.577Z,16.3
2022-10-23T11:00:03.587Z,16.3
2022-10-23T11:01:05.662Z,16.4
2022-10-23T11:02:07.676Z,16.5
2022-10-23T11:03:09.566Z,16.5
2022-10-23T11:04:13.574Z,16.6
2022-10-23T11:05:15.639Z,16.6
2022-10-23T11:06:17.586Z,16.7
2022-10-23T11:07:19.566Z,16.8
2022-10-23T11:08:23.569Z,16.9
2022-10-23T11:09:25.575Z,17
2022-10-23T11:10:27.578Z,17.1
2022-10-23T11:11:31.624Z,17.2
2022-10-23T11:12:33.568Z,17.2
2022-10-23T11:13:37.577Z,17.2
2022-10-23T11:14:39.570Z,17.2
2022-10-23T11:15:41.654Z,17.3
2022-10-23T11:16:43.608Z,17.4
2022-10-23T11:17:47.575Z,17.4
2022-10-23T11:18:49.573Z,17.5
2022-10-23T11:19:51.585Z,17.6
2022-10-23T11:20:55.638Z,17.7
2022-10-23T11:21:59.618Z,17.7
2022-10-23T11:23:03.586Z,17.8
2022-10-23T11:24:07.601Z,17.9
2022-10-23T11:25:09.578Z,18
2022-10-23T11:26:18.763Z,18.1
2022-10-23T11:27:15.747Z,18.3
2022-10-23T11:28:19.584Z,18.4
2022-10-23T11:29:23.585Z,18.5
2022-10-23T11:30:27.580Z,18.8
2022-10-23T11:31:31.589Z,19
2022-10-23T11:32:35.637Z,19.2
2022-10-23T11:33:41.377Z,19.4
2022-10-23T11:34:43.589Z,19.5
2022-10-23T11:35:47.657Z,19.7
2022-10-23T11:36:51.631Z,19.8
2022-10-23T11:37:55.625Z,19.9
2022-10-23T11:38:59.592Z,20.1
2022-10-23T11:40:03.586Z,20.2
2022-10-23T11:41:07.593Z,20.4
2022-10-23T11:42:11.631Z,20.4
2022-10-23T11:43:15.619Z,20.5
2022-10-23T11:44:19.640Z,20.4
2022-10-23T11:45:23.595Z,20.4
2022-10-23T11:46:27.600Z,20.2
2022-10-23T11:47:34.984Z,20.1
2022-10-23T11:48:35.615Z,19.9
2022-10-23T11:49:39.644Z,19.8
2022-10-23T11:50:43.626Z,19.7
2022-10-23T11:51:47.648Z,19.5
2022-10-23T11:53:09.254Z,19.4
2022-10-23T11:53:55.608Z,19.2
2022-10-23T11:54:59.656Z,19.1
2022-10-23T11:56:03.595Z,18.9
2022-10-23T11:57:10.384Z,18.7
2022-10-23T11:58:09.607Z,18.7
2022-10-23T11:59:13.619Z,18.5
2022-10-23T12:00:17.635Z,18.5
2022-10-23T12:01:19.715Z,18.4
2022-10-23T12:02:21.674Z,18.3
2022-10-23T12:03:25.614Z,18.2
2022-10-23T12:04:27.616Z,18.1
2022-10-23T12:05:31.617Z,18
2022-10-23T12:06:52.216Z,18
2022-10-23T12:07:39.618Z,18
2022-10-23T12:08:41.612Z,17.9
2022-10-23T12:10:02.360Z,17.9
2022-10-23T12:10:48.345Z,17.8
2022-10-23T12:11:52.169Z,17.7
2022-10-23T12:12:56.153Z,17.7
2022-10-23T12:14:01.183Z,17.7
2022-10-23T12:15:03.164Z,17.7
2022-10-23T12:16:07.186Z,17.7
2022-10-23T12:17:09.171Z,17.7
2022-10-23T12:18:13.162Z,17.6
2022-10-23T12:19:17.179Z,17.6
2022-10-23T12:20:21.181Z,17.6
2022-10-23T12:21:25.203Z,17.7
2022-10-23T12:22:30.223Z,17.7
2022-10-23T12:23:33.210Z,17.7
2022-10-23T12:24:37.178Z,17.6
2022-10-23T12:25:39.174Z,17.6
2022-10-23T12:26:43.208Z,17.6
2022-10-23T12:27:47.180Z,17.6
2022-10-23T12:28:49.196Z,17.6
2022-10-23T12:29:53.234Z,17.6
2022-10-23T12:30:57.265Z,17.6
2022-10-23T12:31:59.170Z,17.5
2022-10-23T12:33:03.187Z,17.6
2022-10-23T12:34:07.175Z,17.5
2022-10-23T12:35:09.187Z,17.5
2022-10-23T12:36:13.233Z,17.4
2022-10-23T12:37:17.182Z,17.4
2022-10-23T12:38:21.182Z,17.4
2022-10-23T12:39:25.211Z,17.3
2022-10-23T12:40:30.198Z,17.4
2022-10-23T12:41:33.211Z,17.4
2022-10-23T12:42:37.203Z,17.4
2022-10-23T12:43:41.186Z,17.4
2022-10-23T12:44:45.186Z,17.4
2022-10-23T12:45:49.224Z,17.4
2022-10-23T12:46:53.228Z,17.5
2022-10-23T12:47:57.183Z,17.6
2022-10-23T12:49:01.203Z,17.5
2022-10-23T12:50:05.184Z,17.5
2022-10-23T12:52:13.226Z,17.6
2022-10-23T12:53:17.192Z,17.6
2022-10-23T12:54:27.799Z,17.7
2022-10-23T12:55:35.056Z,17.7
2022-10-23T12:56:35.740Z,17.6
2022-10-23T12:57:37.844Z,17.6
2022-10-23T12:58:39.751Z,17.6
2022-10-23T12:59:41.745Z,17.5
2022-10-23T13:00:45.770Z,17.5
2022-10-23T13:01:52.836Z,17.4
2022-10-23T13:02:53.779Z,17.4
2022-10-23T13:04:23.919Z,17.4
2022-10-23T13:05:23.942Z,17.4
2022-10-23T13:06:23.919Z,17.4
2022-10-23T13:07:23.947Z,17.4
2022-10-23T13:08:23.922Z,17.5
2022-10-23T13:09:23.926Z,17.5
2022-10-23T13:10:23.931Z,17.5
2022-10-23T13:11:23.925Z,17.5
2022-10-23T13:12:25.846Z,17.4
2022-10-23T13:13:30.788Z,17.4
2022-10-23T13:14:33.775Z,17.3
2022-10-23T13:15:37.769Z,17.3
2022-10-23T13:16:41.777Z,17.3
2022-10-23T13:17:46.286Z,17.3
2022-10-23T13:18:47.784Z,17.4
2022-10-23T13:19:51.779Z,17.3
2022-10-23T13:20:54.819Z,17.3
2022-10-23T13:21:58.771Z,17.3
2022-10-23T13:23:02.978Z,17.2
2022-10-23T13:24:06.781Z,17.2
2022-10-23T13:25:10.785Z,17.2
2022-10-23T13:26:12.790Z,17.2
2022-10-23T13:27:16.784Z,17.2
2022-10-23T13:28:18.812Z,17.1
2022-10-23T13:29:22.896Z,17
2022-10-23T13:30:24.798Z,16.9
2022-10-23T13:31:26.850Z,16.9
2022-10-23T13:32:31.782Z,16.9
2022-10-23T13:33:35.792Z,16.9
2022-10-23T13:34:37.786Z,17
2022-10-23T13:35:41.845Z,16.9
2022-10-23T13:36:47.417Z,16.9
2022-10-23T13:37:47.799Z,16.9
2022-10-23T13:38:51.795Z,16.9
2022-10-23T13:39:53.794Z,16.8
2022-10-23T13:40:55.810Z,16.8
2022-10-23T13:41:57.854Z,16.8
2022-10-23T13:42:59.795Z,16.8
2022-10-23T13:44:01.792Z,16.7
2022-10-23T13:45:05.792Z,16.7
2022-10-23T13:46:09.812Z,16.7
2022-10-23T13:47:13.879Z,16.6
2022-10-23T13:48:17.811Z,16.6
2022-10-23T13:49:21.802Z,16.6
2022-10-23T13:50:23.822Z,16.7
2022-10-23T13:51:25.966Z,16.7
2022-10-23T13:52:30.853Z,16.7
2022-10-23T13:53:33.803Z,16.6
2022-10-23T13:54:37.806Z,16.6
2022-10-23T13:55:41.792Z,16.6
2022-10-23T13:56:45.822Z,16.5
2022-10-23T13:57:49.813Z,16.5
2022-10-23T13:58:53.831Z,16.4
2022-10-23T13:59:57.803Z,16.4
2022-10-23T14:01:01.985Z,16.3
2022-10-23T14:02:05.947Z,16.3
2022-10-23T14:03:09.806Z,16.2
2022-10-23T14:04:13.810Z,16.2
2022-10-23T14:05:17.894Z,16.2
2022-10-23T14:06:21.815Z,16.1
2022-10-23T14:07:25.862Z,16
2022-10-23T14:08:27.829Z,16
2022-10-23T14:09:30.844Z,15.9
2022-10-23T14:10:33.828Z,15.9
2022-10-23T14:11:35.817Z,15.9
2022-10-23T14:12:38.852Z,15.9
2022-10-23T14:13:40.817Z,15.9
2022-10-23T14:14:42.820Z,16
2022-10-23T14:15:44.903Z,16
2022-10-23T14:16:46.819Z,16
2022-10-23T14:17:48.817Z,16
2022-10-23T14:18:50.815Z,16
2022-10-23T14:19:52.819Z,15.9
2022-10-23T14:20:54.854Z,15.9
2022-10-23T14:21:56.822Z,15.8
2022-10-23T14:22:58.845Z,15.8
2022-10-23T14:24:00.823Z,15.7
2022-10-23T14:25:03.842Z,15.7
2022-10-23T14:26:05.863Z,15.6
2022-10-23T14:27:07.825Z,15.6
2022-10-23T14:28:09.823Z,15.5
2022-10-23T14:29:21.217Z,15.5
2022-10-23T14:30:13.844Z,15.5
2022-10-23T14:31:15.832Z,15.5
2022-10-23T14:32:17.834Z,15.5
2022-10-23T14:33:19.884Z,15.4
2022-10-23T14:34:21.832Z,15.4
2022-10-23T14:35:23.865Z,15.4
2022-10-23T14:36:30.942Z,15.3
2022-10-23T14:37:27.843Z,15.3
2022-10-23T14:38:31.858Z,15.2
2022-10-23T14:39:33.835Z,15.2
2022-10-23T14:40:35.865Z,15.1
2022-10-23T14:41:37.890Z,15.1
2022-10-23T14:42:39.846Z,15.2
2022-10-23T14:43:41.843Z,15.2
2022-10-23T14:44:43.887Z,15.2
2022-10-23T14:46:48.480Z,15.1
2022-10-23T14:48:23.998Z,15.1
2022-10-23T14:49:24.002Z,15.1
2022-10-23T14:50:24.005Z,15.1
2022-10-23T14:51:24.056Z,15
2022-10-23T14:52:24.009Z,15.1
2022-10-23T14:53:24.013Z,15.1
2022-10-23T14:54:24.011Z,15.1
2022-10-23T14:55:24.007Z,15.1
2022-10-23T14:56:24.029Z,15.1
2022-10-23T14:57:24.044Z,15.1
2022-10-23T14:58:24.012Z,15.2
2022-10-23T14:59:24.007Z,15.1
2022-10-23T15:00:24.038Z,15.1
2022-10-23T15:01:24.207Z,15.2
2022-10-23T15:02:24.010Z,15.2
2022-10-23T15:03:24.014Z,15.2
2022-10-23T15:04:24.031Z,15.3
2022-10-23T15:05:25.575Z,15.3
2022-10-23T15:06:29.549Z,15.3
2022-10-23T15:07:31.593Z,15.2
2022-10-23T15:08:34.546Z,15.2
2022-10-23T15:09:36.568Z,15.3
2022-10-23T15:10:38.690Z,15.2
2022-10-23T15:11:40.548Z,15.2
2022-10-23T15:12:42.911Z,15.2
2022-10-23T15:13:44.555Z,15.2
2022-10-23T15:14:46.600Z,15.2
2022-10-23T15:15:48.606Z,15.2
2022-10-23T15:16:50.568Z,15.3
2022-10-23T15:17:52.562Z,15.3
2022-10-23T15:18:54.557Z,15.2
2022-10-23T15:19:56.570Z,15.2
2022-10-23T15:20:58.593Z,15.2
2022-10-23T15:22:00.555Z,15.2
2022-10-23T15:23:03.089Z,15.1